sensor_id;sensor_type;location;lat;lon;timestamp;P1;P4;P2;P0;N10;N4;N25;N1;N05;TS
43196;SPS30;28816;49.852;18.282;2023-11-19T00:04:19;53.630000;;52.440000;48.520000;;;;;;
43196;SPS30;28816;49.852;18.282;2023-11-19T00:09:21;56.550000;;55.260000;50.810000;;;;;;
43196;SPS30;28816;49.852;18.282;2023-11-19T00:14:23;57.800000;;56.580000;52.420000;;;;;;
43196;SPS30;28816;49.852;18.282;2023-11-19T00:19:25;53.510000;;52.240000;48.740000;;;;;;
43196;SPS30;28816;49.852;18.282;2023-11-19T00:24:28;56.700000;;55.270000;51.070000;;;;;;
43196;SPS30;28816;49.852;18.282;2023-11-19T00:29:30;56.220000;;54.720000;50.440000;;;;;;
43196;SPS30;28816;49.852;18.282;2023-11-19T00:34:32;57.120000;;55.660000;51.340000;;;;;;
43196;SPS30;28816;49.852;18.282;2023-11-19T00:39:34;53.420000;;52.160000;47.680000;;;;;;
43196;SPS30;28816;49.852;18.282;2023-11-19T00:44:36;51.960000;;51.030000;47.070000;;;;;;
43196;SPS30;28816;49.852;18.282;2023-11-19T00:49:38;52.210000;;51.200000;47.800000;;;;;;
43196;SPS30;28816;49.852;18.282;2023-11-19T00:54:40;50.470000;;49.270000;45.250000;;;;;;
43196;SPS30;28816;49.852;18.282;2023-11-19T00:59:42;54.510000;;52.970000;48.560000;;;;;;
43196;SPS30;28816;49.852;18.282;2023-11-19T01:04:44;51.000000;;49.310000;44.840000;;;;;;
43196;SPS30;28816;49.852;18.282;2023-11-19T01:09:46;52.120000;;50.870000;47.220000;;;;;;
43196;SPS30;28816;49.852;18.282;2023-11-19T01:14:48;47.990000;;47.210000;43.790000;;;;;;
43196;SPS30;28816;49.852;18.282;2023-11-19T01:19:50;50.260000;;49.270000;45.420000;;;;;;
43196;SPS30;28816;49.852;18.282;2023-11-19T01:24:52;51.780000;;50.540000;46.840000;;;;;;
43196;SPS30;28816;49.852;18.282;2023-11-19T01:29:54;50.510000;;49.010000;44.960000;;;;;;
43196;SPS30;28816;49.852;18.282;2023-11-19T01:34:56;51.830000;;50.960000;47.300000;;;;;;
43196;SPS30;28816;49.852;18.282;2023-11-19T01:39:59;53.510000;;52.180000;48.400000;;;;;;
43196;SPS30;28816;49.852;18.282;2023-11-19T01:45:01;54.820000;;53.700000;49.510000;;;;;;
43196;SPS30;28816;49.852;18.282;2023-11-19T01:50:03;52.250000;;50.770000;46.670000;;;;;;
43196;SPS30;28816;49.852;18.282;2023-11-19T01:55:07;49.470000;;47.510000;43.350000;;;;;;
43196;SPS30;28816;49.852;18.282;2023-11-19T02:00:10;47.720000;;46.590000;43.300000;;;;;;
43196;SPS30;28816;49.852;18.282;2023-11-19T02:05:13;45.200000;;44.080000;40.210000;;;;;;
43196;SPS30;28816;49.852;18.282;2023-11-19T02:10:15;43.010000;;41.680000;38.550000;;;;;;
43196;SPS30;28816;49.852;18.282;2023-11-19T02:15:17;43.550000;;42.550000;39.580000;;;;;;
43196;SPS30;28816;49.852;18.282;2023-11-19T02:20:19;42.970000;;41.730000;38.380000;;;;;;
43196;SPS30;28816;49.852;18.282;2023-11-19T02:25:21;43.700000;;42.730000;39.440000;;;;;;
43196;SPS30;28816;49.852;18.282;2023-11-19T02:30:28;43.350000;;42.290000;39.120000;;;;;;
43196;SPS30;28816;49.852;18.282;2023-11-19T02:35:30;45.720000;;43.900000;39.560000;;;;;;
43196;SPS30;28816;49.852;18.282;2023-11-19T02:40:33;43.790000;;42.770000;39.600000;;;;;;
43196;SPS30;28816;49.852;18.282;2023-11-19T02:45:34;42.890000;;41.840000;38.720000;;;;;;
43196;SPS30;28816;49.852;18.282;2023-11-19T02:50:37;41.690000;;40.690000;37.560000;;;;;;
43196;SPS30;28816;49.852;18.282;2023-11-19T02:55:39;41.880000;;40.720000;37.380000;;;;;;
43196;SPS30;28816;49.852;18.282;2023-11-19T03:00:41;39.290000;;38.200000;34.930000;;;;;;
43196;SPS30;28816;49.852;18.282;2023-11-19T03:05:43;38.160000;;37.110000;34.070000;;;;;;
43196;SPS30;28816;49.852;18.282;2023-11-19T03:10:45;38.330000;;37.030000;34.070000;;;;;;
43196;SPS30;28816;49.852;18.282;2023-11-19T03:15:47;35.880000;;35.310000;32.420000;;;;;;
43196;SPS30;28816;49.852;18.282;2023-11-19T03:20:49;37.730000;;36.950000;34.000000;;;;;;
43196;SPS30;28816;49.852;18.282;2023-11-19T03:25:51;36.430000;;35.950000;33.270000;;;;;;
43196;SPS30;28816;49.852;18.282;2023-11-19T03:30:53;32.710000;;32.040000;29.510000;;;;;;
43196;SPS30;28816;49.852;18.282;2023-11-19T03:35:55;32.680000;;32.020000;29.990000;;;;;;
43196;SPS30;28816;49.852;18.282;2023-11-19T03:40:57;29.090000;;28.610000;26.460000;;;;;;
43196;SPS30;28816;49.852;18.282;2023-11-19T03:46:00;27.950000;;27.470000;25.430000;;;;;;
43196;SPS30;28816;49.852;18.282;2023-11-19T03:51:01;28.840000;;28.310000;26.390000;;;;;;
43196;SPS30;28816;49.852;18.282;2023-11-19T03:56:03;28.600000;;27.920000;25.630000;;;;;;
43196;SPS30;28816;49.852;18.282;2023-11-19T04:01:06;31.960000;;31.260000;28.550000;;;;;;
43196;SPS30;28816;49.852;18.282;2023-11-19T04:06:11;32.990000;;31.860000;29.170000;;;;;;
43196;SPS30;28816;49.852;18.282;2023-11-19T04:11:14;33.140000;;32.240000;29.500000;;;;;;
43196;SPS30;28816;49.852;18.282;2023-11-19T04:16:16;33.310000;;32.380000;29.760000;;;;;;
43196;SPS30;28816;49.852;18.282;2023-11-19T04:21:18;31.790000;;31.040000;28.610000;;;;;;
43196;SPS30;28816;49.852;18.282;2023-11-19T04:26:20;31.580000;;30.740000;28.300000;;;;;;
43196;SPS30;28816;49.852;18.282;2023-11-19T04:31:22;31.680000;;31.430000;29.080000;;;;;;
43196;SPS30;28816;49.852;18.282;2023-11-19T04:36:28;33.980000;;32.670000;29.420000;;;;;;
43196;SPS30;28816;49.852;18.282;2023-11-19T04:41:30;33.040000;;32.440000;29.900000;;;;;;
43196;SPS30;28816;49.852;18.282;2023-11-19T04:46:33;31.980000;;31.290000;28.450000;;;;;;
43196;SPS30;28816;49.852;18.282;2023-11-19T04:51:34;30.820000;;30.060000;27.670000;;;;;;
43196;SPS30;28816;49.852;18.282;2023-11-19T04:56:38;29.410000;;28.510000;25.930000;;;;;;
43196;SPS30;28816;49.852;18.282;2023-11-19T05:01:40;30.930000;;30.120000;27.960000;;;;;;
43196;SPS30;28816;49.852;18.282;2023-11-19T05:06:46;29.690000;;29.200000;26.880000;;;;;;
43196;SPS30;28816;49.852;18.282;2023-11-19T05:11:47;28.590000;;28.120000;25.830000;;;;;;
43196;SPS30;28816;49.852;18.282;2023-11-19T05:16:49;27.240000;;26.710000;24.320000;;;;;;
43196;SPS30;28816;49.852;18.282;2023-11-19T05:21:51;27.740000;;27.420000;25.540000;;;;;;
43196;SPS30;28816;49.852;18.282;2023-11-19T05:26:53;28.500000;;27.610000;25.320000;;;;;;
43196;SPS30;28816;49.852;18.282;2023-11-19T05:31:55;26.000000;;25.390000;23.420000;;;;;;
43196;SPS30;28816;49.852;18.282;2023-11-19T05:36:57;24.980000;;24.370000;22.550000;;;;;;
43196;SPS30;28816;49.852;18.282;2023-11-19T05:41:59;24.050000;;23.450000;21.510000;;;;;;
43196;SPS30;28816;49.852;18.282;2023-11-19T05:47:02;22.810000;;22.370000;20.590000;;;;;;
43196;SPS30;28816;49.852;18.282;2023-11-19T05:52:04;23.530000;;22.760000;21.100000;;;;;;
43196;SPS30;28816;49.852;18.282;2023-11-19T05:57:06;21.570000;;20.900000;19.070000;;;;;;
43196;SPS30;28816;49.852;18.282;2023-11-19T06:02:08;21.060000;;20.480000;19.140000;;;;;;
43196;SPS30;28816;49.852;18.282;2023-11-19T06:07:10;20.320000;;19.640000;18.020000;;;;;;
43196;SPS30;28816;49.852;18.282;2023-11-19T06:12:12;20.240000;;19.880000;18.120000;;;;;;
43196;SPS30;28816;49.852;18.282;2023-11-19T06:17:14;19.800000;;19.520000;17.870000;;;;;;
43196;SPS30;28816;49.852;18.282;2023-11-19T06:22:15;21.050000;;20.390000;18.810000;;;;;;
43196;SPS30;28816;49.852;18.282;2023-11-19T06:27:17;21.860000;;21.170000;19.350000;;;;;;
43196;SPS30;28816;49.852;18.282;2023-11-19T06:32:20;22.000000;;21.350000;19.780000;;;;;;
43196;SPS30;28816;49.852;18.282;2023-11-19T06:37:23;21.720000;;21.030000;19.320000;;;;;;
43196;SPS30;28816;49.852;18.282;2023-11-19T06:42:26;21.120000;;20.520000;18.680000;;;;;;
43196;SPS30;28816;49.852;18.282;2023-11-19T06:47:28;20.750000;;20.480000;19.350000;;;;;;
43196;SPS30;28816;49.852;18.282;2023-11-19T06:52:30;22.930000;;22.200000;20.650000;;;;;;
43196;SPS30;28816;49.852;18.282;2023-11-19T06:57:32;18.400000;;18.050000;16.810000;;;;;;
43196;SPS30;28816;49.852;18.282;2023-11-19T07:02:34;21.300000;;20.580000;19.120000;;;;;;
43196;SPS30;28816;49.852;18.282;2023-11-19T07:07:36;19.690000;;19.150000;17.840000;;;;;;
43196;SPS30;28816;49.852;18.282;2023-11-19T07:12:38;18.140000;;17.750000;16.190000;;;;;;
43196;SPS30;28816;49.852;18.282;2023-11-19T07:17:39;17.310000;;17.040000;15.830000;;;;;;
43196;SPS30;28816;49.852;18.282;2023-11-19T07:22:41;15.900000;;15.580000;14.550000;;;;;;
43196;SPS30;28816;49.852;18.282;2023-11-19T07:27:43;17.500000;;17.190000;16.210000;;;;;;
43196;SPS30;28816;49.852;18.282;2023-11-19T07:32:46;16.280000;;15.810000;14.730000;;;;;;
43196;SPS30;28816;49.852;18.282;2023-11-19T07:37:47;15.370000;;15.170000;14.080000;;;;;;
43196;SPS30;28816;49.852;18.282;2023-11-19T07:42:49;16.090000;;15.730000;14.580000;;;;;;
43196;SPS30;28816;49.852;18.282;2023-11-19T07:47:51;15.310000;;15.080000;14.220000;;;;;;
43196;SPS30;28816;49.852;18.282;2023-11-19T07:52:53;14.880000;;14.710000;13.870000;;;;;;
43196;SPS30;28816;49.852;18.282;2023-11-19T07:57:55;14.900000;;14.690000;13.730000;;;;;;
43196;SPS30;28816;49.852;18.282;2023-11-19T08:02:57;12.980000;;12.860000;11.710000;;;;;;
43196;SPS30;28816;49.852;18.282;2023-11-19T08:07:59;12.490000;;12.370000;11.440000;;;;;;
43196;SPS30;28816;49.852;18.282;2023-11-19T08:13:01;10.980000;;10.740000;9.920000;;;;;;
43196;SPS30;28816;49.852;18.282;2023-11-19T08:18:03;11.710000;;11.590000;10.860000;;;;;;
43196;SPS30;28816;49.852;18.282;2023-11-19T08:23:05;10.450000;;10.450000;9.640000;;;;;;
43196;SPS30;28816;49.852;18.282;2023-11-19T08:28:07;10.290000;;10.200000;9.330000;;;;;;
43196;SPS30;28816;49.852;18.282;2023-11-19T08:33:10;11.050000;;10.790000;10.110000;;;;;;
43196;SPS30;28816;49.852;18.282;2023-11-19T08:38:12;10.680000;;10.520000;9.700000;;;;;;
43196;SPS30;28816;49.852;18.282;2023-11-19T08:43:14;11.730000;;11.670000;10.870000;;;;;;
43196;SPS30;28816;49.852;18.282;2023-11-19T08:48:15;9.720000;;9.560000;8.990000;;;;;;
43196;SPS30;28816;49.852;18.282;2023-11-19T08:53:18;9.290000;;9.360000;8.610000;;;;;;
43196;SPS30;28816;49.852;18.282;2023-11-19T08:58:19;8.870000;;8.660000;8.240000;;;;;;
43196;SPS30;28816;49.852;18.282;2023-11-19T09:03:22;8.190000;;8.080000;7.720000;;;;;;
43196;SPS30;28816;49.852;18.282;2023-11-19T09:08:23;7.590000;;7.510000;7.010000;;;;;;
43196;SPS30;28816;49.852;18.282;2023-11-19T09:13:25;8.390000;;8.250000;7.820000;;;;;;
43196;SPS30;28816;49.852;18.282;2023-11-19T09:18:27;7.660000;;7.660000;7.140000;;;;;;
43196;SPS30;28816;49.852;18.282;2023-11-19T09:23:29;8.160000;;8.090000;7.480000;;;;;;
43196;SPS30;28816;49.852;18.282;2023-11-19T09:28:31;7.560000;;7.380000;6.920000;;;;;;
43196;SPS30;28816;49.852;18.282;2023-11-19T09:33:33;8.520000;;8.410000;7.890000;;;;;;
43196;SPS30;28816;49.852;18.282;2023-11-19T09:38:35;7.590000;;7.480000;7.030000;;;;;;
43196;SPS30;28816;49.852;18.282;2023-11-19T09:43:37;8.270000;;8.220000;7.610000;;;;;;
43196;SPS30;28816;49.852;18.282;2023-11-19T09:48:39;8.240000;;8.160000;7.500000;;;;;;
43196;SPS30;28816;49.852;18.282;2023-11-19T09:53:42;7.870000;;7.820000;7.400000;;;;;;
43196;SPS30;28816;49.852;18.282;2023-11-19T09:58:44;9.040000;;8.920000;8.300000;;;;;;
43196;SPS30;28816;49.852;18.282;2023-11-19T10:03:46;10.460000;;10.260000;9.470000;;;;;;
43196;SPS30;28816;49.852;18.282;2023-11-19T10:08:50;8.820000;;8.800000;8.250000;;;;;;
43196;SPS30;28816;49.852;18.282;2023-11-19T10:13:51;8.510000;;8.420000;7.770000;;;;;;
43196;SPS30;28816;49.852;18.282;2023-11-19T10:18:53;7.770000;;7.810000;7.330000;;;;;;
43196;SPS30;28816;49.852;18.282;2023-11-19T10:23:56;8.800000;;8.810000;8.260000;;;;;;
43196;SPS30;28816;49.852;18.282;2023-11-19T10:28:58;9.700000;;9.580000;9.170000;;;;;;
43196;SPS30;28816;49.852;18.282;2023-11-19T10:34:00;8.710000;;8.550000;7.920000;;;;;;
43196;SPS30;28816;49.852;18.282;2023-11-19T10:39:02;9.760000;;9.670000;8.900000;;;;;;
43196;SPS30;28816;49.852;18.282;2023-11-19T10:44:04;9.490000;;9.410000;8.850000;;;;;;
43196;SPS30;28816;49.852;18.282;2023-11-19T10:49:06;8.420000;;8.250000;7.810000;;;;;;
43196;SPS30;28816;49.852;18.282;2023-11-19T10:54:08;9.540000;;9.420000;8.760000;;;;;;
43196;SPS30;28816;49.852;18.282;2023-11-19T10:59:13;8.660000;;8.440000;7.920000;;;;;;
43196;SPS30;28816;49.852;18.282;2023-11-19T11:04:16;10.720000;;10.540000;9.940000;;;;;;
43196;SPS30;28816;49.852;18.282;2023-11-19T11:09:21;7.950000;;7.840000;7.410000;;;;;;
43196;SPS30;28816;49.852;18.282;2023-11-19T11:14:22;7.570000;;7.470000;7.050000;;;;;;
43196;SPS30;28816;49.852;18.282;2023-11-19T11:19:25;7.720000;;7.730000;7.270000;;;;;;
43196;SPS30;28816;49.852;18.282;2023-11-19T11:24:28;6.890000;;6.860000;6.460000;;;;;;
43196;SPS30;28816;49.852;18.282;2023-11-19T11:29:37;7.680000;;7.630000;7.200000;;;;;;
43196;SPS30;28816;49.852;18.282;2023-11-19T11:34:41;7.450000;;7.290000;6.840000;;;;;;
43196;SPS30;28816;49.852;18.282;2023-11-19T11:39:50;6.340000;;6.230000;5.910000;;;;;;
43196;SPS30;28816;49.852;18.282;2023-11-19T11:44:53;6.530000;;6.510000;6.180000;;;;;;
43196;SPS30;28816;49.852;18.282;2023-11-19T11:49:59;7.010000;;6.940000;6.540000;;;;;;
43196;SPS30;28816;49.852;18.282;2023-11-19T11:55:06;6.890000;;6.800000;6.330000;;;;;;
43196;SPS30;28816;49.852;18.282;2023-11-19T12:00:08;7.710000;;7.740000;7.210000;;;;;;
43196;SPS30;28816;49.852;18.282;2023-11-19T12:05:21;6.870000;;6.820000;6.290000;;;;;;
43196;SPS30;28816;49.852;18.282;2023-11-19T12:10:23;7.290000;;7.320000;6.840000;;;;;;
43196;SPS30;28816;49.852;18.282;2023-11-19T12:15:25;7.100000;;6.990000;6.370000;;;;;;
43196;SPS30;28816;49.852;18.282;2023-11-19T12:20:28;6.990000;;7.030000;6.510000;;;;;;
43196;SPS30;28816;49.852;18.282;2023-11-19T12:25:33;7.730000;;7.650000;7.270000;;;;;;
43196;SPS30;28816;49.852;18.282;2023-11-19T12:30:36;8.010000;;7.920000;7.400000;;;;;;
43196;SPS30;28816;49.852;18.282;2023-11-19T12:35:37;7.480000;;7.290000;6.890000;;;;;;
43196;SPS30;28816;49.852;18.282;2023-11-19T12:40:40;7.810000;;7.760000;7.270000;;;;;;
43196;SPS30;28816;49.852;18.282;2023-11-19T12:45:42;7.570000;;7.550000;6.990000;;;;;;
43196;SPS30;28816;49.852;18.282;2023-11-19T12:50:43;8.500000;;8.450000;7.910000;;;;;;
43196;SPS30;28816;49.852;18.282;2023-11-19T12:55:53;9.080000;;9.070000;8.470000;;;;;;
43196;SPS30;28816;49.852;18.282;2023-11-19T13:00:55;8.060000;;7.940000;7.540000;;;;;;
43196;SPS30;28816;49.852;18.282;2023-11-19T13:05:59;7.470000;;7.260000;6.760000;;;;;;
43196;SPS30;28816;49.852;18.282;2023-11-19T13:11:02;6.680000;;6.640000;6.190000;;;;;;
43196;SPS30;28816;49.852;18.282;2023-11-19T13:16:04;6.520000;;6.490000;6.040000;;;;;;
43196;SPS30;28816;49.852;18.282;2023-11-19T13:21:07;5.910000;;5.880000;5.480000;;;;;;
43196;SPS30;28816;49.852;18.282;2023-11-19T13:26:09;7.560000;;7.490000;7.120000;;;;;;
43196;SPS30;28816;49.852;18.282;2023-11-19T13:31:11;5.010000;;4.960000;4.690000;;;;;;
43196;SPS30;28816;49.852;18.282;2023-11-19T13:36:13;5.460000;;5.400000;5.220000;;;;;;
43196;SPS30;28816;49.852;18.282;2023-11-19T13:41:15;5.270000;;5.260000;4.890000;;;;;;
43196;SPS30;28816;49.852;18.282;2023-11-19T13:46:17;4.220000;;4.230000;3.910000;;;;;;
43196;SPS30;28816;49.852;18.282;2023-11-19T13:51:19;5.020000;;5.050000;4.700000;;;;;;
43196;SPS30;28816;49.852;18.282;2023-11-19T13:56:22;5.080000;;5.030000;4.730000;;;;;;
43196;SPS30;28816;49.852;18.282;2023-11-19T14:01:23;4.600000;;4.550000;4.360000;;;;;;
43196;SPS30;28816;49.852;18.282;2023-11-19T14:06:26;5.030000;;4.990000;4.690000;;;;;;
43196;SPS30;28816;49.852;18.282;2023-11-19T14:11:28;4.960000;;4.950000;4.650000;;;;;;
43196;SPS30;28816;49.852;18.282;2023-11-19T14:16:30;5.570000;;5.550000;5.260000;;;;;;
43196;SPS30;28816;49.852;18.282;2023-11-19T14:21:32;5.330000;;5.310000;5.070000;;;;;;
43196;SPS30;28816;49.852;18.282;2023-11-19T14:26:35;5.360000;;5.320000;5.100000;;;;;;
43196;SPS30;28816;49.852;18.282;2023-11-19T14:31:37;5.040000;;5.000000;4.800000;;;;;;
43196;SPS30;28816;49.852;18.282;2023-11-19T14:36:39;4.620000;;4.610000;4.360000;;;;;;
43196;SPS30;28816;49.852;18.282;2023-11-19T14:41:41;5.200000;;5.160000;4.950000;;;;;;
43196;SPS30;28816;49.852;18.282;2023-11-19T14:46:43;4.730000;;4.660000;4.350000;;;;;;
43196;SPS30;28816;49.852;18.282;2023-11-19T14:51:45;4.900000;;4.860000;4.700000;;;;;;
43196;SPS30;28816;49.852;18.282;2023-11-19T14:56:46;5.080000;;5.060000;4.820000;;;;;;
43196;SPS30;28816;49.852;18.282;2023-11-19T15:01:48;6.160000;;6.140000;5.750000;;;;;;
43196;SPS30;28816;49.852;18.282;2023-11-19T15:06:50;6.230000;;6.250000;5.880000;;;;;;
43196;SPS30;28816;49.852;18.282;2023-11-19T15:11:52;5.590000;;5.580000;5.230000;;;;;;
43196;SPS30;28816;49.852;18.282;2023-11-19T15:16:54;5.120000;;5.130000;4.870000;;;;;;
43196;SPS30;28816;49.852;18.282;2023-11-19T15:21:56;5.850000;;5.840000;5.520000;;;;;;
43196;SPS30;28816;49.852;18.282;2023-11-19T15:26:58;6.740000;;6.720000;6.380000;;;;;;
43196;SPS30;28816;49.852;18.282;2023-11-19T15:32:00;7.530000;;7.570000;7.040000;;;;;;
43196;SPS30;28816;49.852;18.282;2023-11-19T15:37:02;6.100000;;6.040000;5.810000;;;;;;
43196;SPS30;28816;49.852;18.282;2023-11-19T15:42:05;5.610000;;5.530000;5.260000;;;;;;
43196;SPS30;28816;49.852;18.282;2023-11-19T15:47:07;5.580000;;5.630000;5.250000;;;;;;
43196;SPS30;28816;49.852;18.282;2023-11-19T15:52:09;6.840000;;6.940000;6.380000;;;;;;
43196;SPS30;28816;49.852;18.282;2023-11-19T15:57:11;5.320000;;5.280000;5.040000;;;;;;
43196;SPS30;28816;49.852;18.282;2023-11-19T16:02:13;6.290000;;6.210000;5.910000;;;;;;
43196;SPS30;28816;49.852;18.282;2023-11-19T16:07:15;6.210000;;6.160000;5.780000;;;;;;
43196;SPS30;28816;49.852;18.282;2023-11-19T16:12:16;5.660000;;5.630000;5.240000;;;;;;
43196;SPS30;28816;49.852;18.282;2023-11-19T16:17:19;5.760000;;5.740000;5.350000;;;;;;
43196;SPS30;28816;49.852;18.282;2023-11-19T16:22:21;6.520000;;6.530000;6.020000;;;;;;
43196;SPS30;28816;49.852;18.282;2023-11-19T16:27:23;5.390000;;5.360000;5.040000;;;;;;
43196;SPS30;28816;49.852;18.282;2023-11-19T16:32:25;6.110000;;6.030000;5.600000;;;;;;
43196;SPS30;28816;49.852;18.282;2023-11-19T16:37:27;6.470000;;6.460000;6.100000;;;;;;
43196;SPS30;28816;49.852;18.282;2023-11-19T16:42:29;6.300000;;6.220000;6.000000;;;;;;
43196;SPS30;28816;49.852;18.282;2023-11-19T16:47:31;7.340000;;7.320000;6.890000;;;;;;
43196;SPS30;28816;49.852;18.282;2023-11-19T16:52:33;6.780000;;6.720000;6.310000;;;;;;
43196;SPS30;28816;49.852;18.282;2023-11-19T16:57:35;7.750000;;7.630000;7.100000;;;;;;
43196;SPS30;28816;49.852;18.282;2023-11-19T17:02:37;7.160000;;7.170000;6.640000;;;;;;
43196;SPS30;28816;49.852;18.282;2023-11-19T17:07:40;7.190000;;7.170000;6.650000;;;;;;
43196;SPS30;28816;49.852;18.282;2023-11-19T17:12:42;7.860000;;7.860000;7.450000;;;;;;
43196;SPS30;28816;49.852;18.282;2023-11-19T17:17:45;7.930000;;8.060000;7.400000;;;;;;
43196;SPS30;28816;49.852;18.282;2023-11-19T17:22:46;7.830000;;7.770000;7.250000;;;;;;
43196;SPS30;28816;49.852;18.282;2023-11-19T17:27:48;9.250000;;9.280000;8.690000;;;;;;
43196;SPS30;28816;49.852;18.282;2023-11-19T17:32:50;7.930000;;7.980000;7.460000;;;;;;
43196;SPS30;28816;49.852;18.282;2023-11-19T17:37:52;8.090000;;8.010000;7.710000;;;;;;
43196;SPS30;28816;49.852;18.282;2023-11-19T17:42:54;8.860000;;8.760000;8.460000;;;;;;
43196;SPS30;28816;49.852;18.282;2023-11-19T17:47:56;8.990000;;8.870000;8.370000;;;;;;
43196;SPS30;28816;49.852;18.282;2023-11-19T17:52:57;9.260000;;9.230000;8.770000;;;;;;
43196;SPS30;28816;49.852;18.282;2023-11-19T17:58:00;9.090000;;9.030000;8.380000;;;;;;
43196;SPS30;28816;49.852;18.282;2023-11-19T18:03:01;9.110000;;9.160000;8.620000;;;;;;
43196;SPS30;28816;49.852;18.282;2023-11-19T18:08:03;8.400000;;8.370000;7.890000;;;;;;
43196;SPS30;28816;49.852;18.282;2023-11-19T18:13:05;8.470000;;8.440000;7.860000;;;;;;
43196;SPS30;28816;49.852;18.282;2023-11-19T18:18:07;9.620000;;9.600000;9.150000;;;;;;
43196;SPS30;28816;49.852;18.282;2023-11-19T18:23:09;9.360000;;9.240000;8.620000;;;;;;
43196;SPS30;28816;49.852;18.282;2023-11-19T18:28:11;9.930000;;9.910000;9.260000;;;;;;
43196;SPS30;28816;49.852;18.282;2023-11-19T18:33:13;10.320000;;10.330000;9.730000;;;;;;
43196;SPS30;28816;49.852;18.282;2023-11-19T18:38:15;11.030000;;11.010000;10.180000;;;;;;
43196;SPS30;28816;49.852;18.282;2023-11-19T18:43:17;10.670000;;10.580000;10.030000;;;;;;
43196;SPS30;28816;49.852;18.282;2023-11-19T18:48:19;10.060000;;9.960000;9.340000;;;;;;
43196;SPS30;28816;49.852;18.282;2023-11-19T18:53:20;9.770000;;9.620000;9.120000;;;;;;
43196;SPS30;28816;49.852;18.282;2023-11-19T18:58:23;10.510000;;10.350000;9.860000;;;;;;
43196;SPS30;28816;49.852;18.282;2023-11-19T19:03:25;10.470000;;10.420000;9.880000;;;;;;
43196;SPS30;28816;49.852;18.282;2023-11-19T19:08:26;8.950000;;8.960000;8.420000;;;;;;
43196;SPS30;28816;49.852;18.282;2023-11-19T19:13:29;11.010000;;10.950000;10.190000;;;;;;
43196;SPS30;28816;49.852;18.282;2023-11-19T19:18:30;10.550000;;10.560000;9.840000;;;;;;
43196;SPS30;28816;49.852;18.282;2023-11-19T19:23:33;11.190000;;11.140000;10.460000;;;;;;
43196;SPS30;28816;49.852;18.282;2023-11-19T19:28:35;10.720000;;10.700000;9.760000;;;;;;
43196;SPS30;28816;49.852;18.282;2023-11-19T19:33:37;12.110000;;11.900000;11.090000;;;;;;
43196;SPS30;28816;49.852;18.282;2023-11-19T19:38:39;11.890000;;11.630000;11.030000;;;;;;
43196;SPS30;28816;49.852;18.282;2023-11-19T19:43:41;12.340000;;12.270000;11.520000;;;;;;
43196;SPS30;28816;49.852;18.282;2023-11-19T19:48:43;12.070000;;12.020000;11.410000;;;;;;
43196;SPS30;28816;49.852;18.282;2023-11-19T19:53:45;12.480000;;12.370000;11.530000;;;;;;
43196;SPS30;28816;49.852;18.282;2023-11-19T19:58:46;13.460000;;13.170000;12.350000;;;;;;
43196;SPS30;28816;49.852;18.282;2023-11-19T20:03:49;12.750000;;12.670000;11.720000;;;;;;
43196;SPS30;28816;49.852;18.282;2023-11-19T20:08:50;13.450000;;13.280000;12.680000;;;;;;
43196;SPS30;28816;49.852;18.282;2023-11-19T20:13:52;12.650000;;12.440000;11.730000;;;;;;
43196;SPS30;28816;49.852;18.282;2023-11-19T20:18:54;13.740000;;13.560000;12.550000;;;;;;
43196;SPS30;28816;49.852;18.282;2023-11-19T20:23:56;13.390000;;13.190000;12.160000;;;;;;
43196;SPS30;28816;49.852;18.282;2023-11-19T20:28:58;13.560000;;13.400000;12.410000;;;;;;
43196;SPS30;28816;49.852;18.282;2023-11-19T20:34:00;13.110000;;13.070000;12.050000;;;;;;
43196;SPS30;28816;49.852;18.282;2023-11-19T20:39:02;13.630000;;13.310000;12.360000;;;;;;
43196;SPS30;28816;49.852;18.282;2023-11-19T20:44:04;12.530000;;12.130000;11.280000;;;;;;
43196;SPS30;28816;49.852;18.282;2023-11-19T20:49:06;14.040000;;13.760000;12.780000;;;;;;
43196;SPS30;28816;49.852;18.282;2023-11-19T20:54:08;14.330000;;14.110000;13.150000;;;;;;
43196;SPS30;28816;49.852;18.282;2023-11-19T20:59:09;14.150000;;13.990000;12.950000;;;;;;
43196;SPS30;28816;49.852;18.282;2023-11-19T21:04:12;14.670000;;14.410000;13.220000;;;;;;
43196;SPS30;28816;49.852;18.282;2023-11-19T21:09:13;13.490000;;13.230000;12.280000;;;;;;
43196;SPS30;28816;49.852;18.282;2023-11-19T21:14:15;13.270000;;13.080000;12.330000;;;;;;
43196;SPS30;28816;49.852;18.282;2023-11-19T21:19:18;14.050000;;13.760000;12.910000;;;;;;
43196;SPS30;28816;49.852;18.282;2023-11-19T21:24:21;15.140000;;14.850000;13.800000;;;;;;
43196;SPS30;28816;49.852;18.282;2023-11-19T21:29:23;15.100000;;14.960000;13.890000;;;;;;
43196;SPS30;28816;49.852;18.282;2023-11-19T21:34:24;13.250000;;13.120000;12.480000;;;;;;
43196;SPS30;28816;49.852;18.282;2023-11-19T21:39:26;13.210000;;13.030000;12.030000;;;;;;
43196;SPS30;28816;49.852;18.282;2023-11-19T21:44:28;13.280000;;12.890000;11.890000;;;;;;
43196;SPS30;28816;49.852;18.282;2023-11-19T21:49:30;13.440000;;13.150000;12.120000;;;;;;
43196;SPS30;28816;49.852;18.282;2023-11-19T21:54:32;13.340000;;13.260000;12.250000;;;;;;
43196;SPS30;28816;49.852;18.282;2023-11-19T21:59:34;12.840000;;12.680000;11.750000;;;;;;
43196;SPS30;28816;49.852;18.282;2023-11-19T22:04:36;12.780000;;12.630000;11.730000;;;;;;
43196;SPS30;28816;49.852;18.282;2023-11-19T22:09:38;12.470000;;12.210000;11.450000;;;;;;
43196;SPS30;28816;49.852;18.282;2023-11-19T22:14:40;13.720000;;13.480000;12.610000;;;;;;
43196;SPS30;28816;49.852;18.282;2023-11-19T22:19:42;12.530000;;12.360000;11.560000;;;;;;
43196;SPS30;28816;49.852;18.282;2023-11-19T22:24:44;13.000000;;12.950000;11.860000;;;;;;
43196;SPS30;28816;49.852;18.282;2023-11-19T22:29:46;12.890000;;12.750000;12.030000;;;;;;
43196;SPS30;28816;49.852;18.282;2023-11-19T22:34:48;12.120000;;12.010000;11.040000;;;;;;
43196;SPS30;28816;49.852;18.282;2023-11-19T22:39:50;13.650000;;13.430000;12.320000;;;;;;
43196;SPS30;28816;49.852;18.282;2023-11-19T22:44:52;13.320000;;13.100000;12.290000;;;;;;
43196;SPS30;28816;49.852;18.282;2023-11-19T22:49:53;15.030000;;14.730000;13.510000;;;;;;